Time;durP1;ratioP1;P1;durP2;ratioP2;P2;SDS_P1;SDS_P2;PMS_P1;PMS_P2;Temp;Humidity;BMP_temperature;BMP_pressure;BME280_temperature;BME280_humidity;BME280_pressure;Samples;Min_cycle;Max_cycle;Signal;HPM_P1;HPM_P2
2023/04/13 00:01:15;;;;;;;17.23;3.10;;;;;;;9.62;66.70;99817.69;5069850;28;20100;-65
2023/04/13 00:03:44;;;;;;;18.48;3.08;;;;;;;9.76;66.03;99812.75;5071893;28;20048;-65
2023/04/13 00:06:12;;;;;;;19.27;3.20;;;;;;;9.59;66.84;99818.31;5073072;28;20055;-64
2023/04/13 00:08:41;;;;;;;15.68;3.35;;;;;;;9.57;67.15;99822.56;5076765;28;20044;-65
2023/04/13 00:11:10;;;;;;;15.45;2.72;;;;;;;9.52;67.41;99826.28;5075867;28;20059;-65
2023/04/13 00:13:41;;;;;;;17.02;3.20;;;;;;;9.60;67.85;99811.72;5076283;28;20412;-65
2023/04/13 00:16:09;;;;;;;16.38;3.40;;;;;;;9.59;67.19;99828.53;5073813;28;20045;-65
2023/04/13 00:18:37;;;;;;;15.50;3.00;;;;;;;9.68;67.03;99837.53;5077236;28;20045;-65
2023/04/13 00:21:04;;;;;;;19.15;3.00;;;;;;;9.51;67.60;99840.34;5074268;28;20051;-65
2023/04/13 00:23:34;;;;;;;14.15;3.40;;;;;;;9.44;68.02;99832.63;5077700;28;20056;-63
2023/04/13 00:26:02;;;;;;;17.85;3.22;;;;;;;9.63;67.97;99835.78;5061071;28;20635;-63
2023/04/13 00:28:29;;;;;;;22.55;3.85;;;;;;;9.60;67.68;99830.13;5075659;28;20052;-63
2023/04/13 00:30:58;;;;;;;15.80;3.08;;;;;;;9.72;68.02;99833.00;5074734;28;20048;-66
2023/04/13 00:33:25;;;;;;;17.08;3.38;;;;;;;9.92;67.24;99837.78;5073883;28;20570;-66
2023/04/13 00:35:53;;;;;;;21.38;4.22;;;;;;;9.58;67.95;99832.41;5075652;28;20047;-65
2023/04/13 00:38:22;;;;;;;17.15;3.42;;;;;;;9.49;68.63;99837.13;5086420;28;20057;-64
2023/04/13 00:40:53;;;;;;;22.98;3.17;;;;;;;9.35;69.44;99836.50;5075872;28;20411;-68
2023/04/13 00:43:20;;;;;;;21.33;3.67;;;;;;;9.55;68.79;99833.06;5076257;28;20053;-64
2023/04/13 00:45:48;;;;;;;16.42;3.20;;;;;;;9.44;68.70;99840.88;5075309;28;20056;-65
2023/04/13 00:48:16;;;;;;;19.35;3.25;;;;;;;9.31;69.24;99841.06;5075655;28;20131;-65
2023/04/13 00:50:44;;;;;;;17.45;3.88;;;;;;;9.45;69.12;99852.66;5074064;28;20504;-63
2023/04/13 00:53:12;;;;;;;15.45;3.28;;;;;;;9.67;68.21;99833.19;5075162;28;20170;-63
2023/04/13 00:55:41;;;;;;;19.48;3.60;;;;;;;9.86;67.47;99825.34;5056054;28;20064;-63
2023/04/13 00:58:09;;;;;;;18.55;4.18;;;;;;;9.82;67.30;99825.19;5075497;28;20508;-63
2023/04/13 01:00:37;;;;;;;19.05;3.35;;;;;;;9.80;67.54;99835.72;5055899;28;20060;-63
2023/04/13 01:03:05;;;;;;;21.90;3.67;;;;;;;9.49;68.28;99837.94;5041608;28;20060;-65
2023/04/13 01:05:39;;;;;;;19.42;3.85;;;;;;;9.47;68.59;99834.69;5073329;28;20063;-63
2023/04/13 01:08:14;;;;;;;17.95;3.50;;;;;;;9.69;68.21;99836.44;5058096;28;20059;-63
2023/04/13 01:10:53;;;;;;;23.52;3.50;;;;;;;9.41;68.74;99832.47;5057095;28;20056;-65
2023/04/13 01:13:25;;;;;;;25.63;4.35;;;;;;;9.49;68.97;99835.19;5075041;28;20048;-63
2023/04/13 01:16:02;;;;;;;20.98;3.67;;;;;;;9.54;68.68;99832.25;5056835;28;20044;-63
2023/04/13 01:18:38;;;;;;;23.05;3.80;;;;;;;9.37;69.21;99820.50;5055845;28;20044;-65
2023/04/13 01:21:11;;;;;;;20.15;3.65;;;;;;;9.62;68.97;99836.13;5071556;28;20719;-63
2023/04/13 01:23:50;;;;;;;20.25;3.63;;;;;;;9.61;68.42;99840.81;5073239;28;20116;-63
2023/04/13 01:26:17;;;;;;;20.17;3.83;;;;;;;9.64;68.51;99834.63;5073768;28;20139;-65
2023/04/13 01:28:46;;;;;;;21.92;3.47;;;;;;;9.60;69.09;99824.66;5074188;28;20055;-65
2023/04/13 01:31:16;;;;;;;25.93;4.00;;;;;;;9.91;67.50;99816.91;5054597;28;20051;-66
2023/04/13 01:33:45;;;;;;;28.48;4.57;;;;;;;9.64;67.55;99844.84;5069206;28;20349;-66
2023/04/13 01:36:13;;;;;;;23.35;4.97;;;;;;;9.59;67.33;99856.81;5070911;28;20047;-65
2023/04/13 01:38:41;;;;;;;28.42;5.05;;;;;;;9.35;68.49;99853.00;5071124;28;20055;-65
2023/04/13 01:41:10;;;;;;;25.95;4.10;;;;;;;9.51;68.59;99846.66;5044636;28;20040;-65
2023/04/13 01:43:43;;;;;;;22.08;3.75;;;;;;;9.38;68.83;99852.34;5038775;28;20052;-65
2023/04/13 01:46:15;;;;;;;24.33;4.03;;;;;;;9.69;68.56;99855.69;5050739;28;20052;-66
2023/04/13 01:49:15;;;;;;;19.73;4.53;;;;;;;9.72;67.92;99846.75;5032178;28;20068;-65
2023/04/13 01:52:03;;;;;;;24.98;3.97;;;;;;;9.75;67.34;99857.09;5030816;28;20057;-65
2023/04/13 01:54:32;;;;;;;26.73;5.43;;;;;;;9.59;66.80;99864.28;5022803;28;20503;-65
2023/04/13 01:57:00;;;;;;;26.52;4.30;;;;;;;9.51;67.89;99865.09;5047609;28;20068;-66
2023/04/13 01:59:29;;;;;;;22.25;3.28;;;;;;;9.54;68.48;99857.00;5054568;28;20056;-65
2023/04/13 02:01:58;;;;;;;21.02;4.38;;;;;;;9.28;68.41;99863.66;5032243;28;20052;-66
2023/04/13 02:04:25;;;;;;;27.65;4.68;;;;;;;9.54;68.24;99867.19;5053812;28;20071;-65
2023/04/13 02:06:53;;;;;;;21.52;3.72;;;;;;;9.68;67.79;99859.53;5071525;28;20087;-66
2023/04/13 02:09:28;;;;;;;26.75;4.97;;;;;;;9.43;67.84;99858.47;5071098;28;20036;-65
2023/04/13 02:11:55;;;;;;;27.83;4.60;;;;;;;9.48;67.50;99857.50;5070951;28;20051;-65
2023/04/13 02:14:24;;;;;;;20.95;3.83;;;;;;;9.63;67.78;99866.03;5075127;28;20063;-65
2023/04/13 02:16:52;;;;;;;21.05;3.75;;;;;;;9.21;67.81;99868.84;5036418;28;20077;-66
2023/04/13 02:19:20;;;;;;;24.38;3.28;;;;;;;9.33;68.42;99872.56;5057042;28;20052;-65
2023/04/13 02:21:48;;;;;;;26.85;4.18;;;;;;;9.72;67.34;99874.25;5071647;28;20065;-65
2023/04/13 02:24:17;;;;;;;21.45;3.47;;;;;;;9.39;67.99;99870.44;5055722;28;20401;-65
2023/04/13 02:26:44;;;;;;;21.55;3.78;;;;;;;9.33;68.39;99885.50;5066896;28;20048;-65
2023/04/13 02:29:12;;;;;;;24.33;4.32;;;;;;;9.49;68.06;99886.59;5073088;28;20548;-66
2023/04/13 02:31:42;;;;;;;27.35;4.38;;;;;;;9.32;68.58;99886.63;5063842;28;20053;-67
2023/04/13 02:34:10;;;;;;;21.65;4.25;;;;;;;9.17;69.15;99878.91;5071894;28;20423;-65
2023/04/13 02:36:38;;;;;;;22.30;3.75;;;;;;;9.32;69.17;99884.69;5053676;28;20068;-65
2023/04/13 02:39:08;;;;;;;24.58;4.32;;;;;;;9.38;67.95;99883.38;5071667;28;20044;-65
2023/04/13 02:41:35;;;;;;;21.58;4.13;;;;;;;9.29;68.28;99895.53;5049754;28;20048;-65
2023/04/13 02:44:02;;;;;;;22.10;4.00;;;;;;;9.23;69.01;99889.38;5073080;28;20060;-66
2023/04/13 02:46:40;;;;;;;20.35;3.53;;;;;;;9.13;69.21;99887.75;5056914;28;20056;-68
2023/04/13 02:49:13;;;;;;;24.92;4.40;;;;;;;9.00;70.12;99891.50;5073536;28;20044;-65
2023/04/13 02:51:51;;;;;;;23.77;4.00;;;;;;;9.23;69.39;99889.38;5054372;28;20059;-65
2023/04/13 02:54:28;;;;;;;20.20;3.65;;;;;;;9.07;69.60;99889.06;5073417;28;20796;-66
2023/04/13 02:56:56;;;;;;;26.00;4.05;;;;;;;9.06;69.34;99897.63;5038013;28;20492;-66
2023/04/13 02:59:24;;;;;;;23.30;4.10;;;;;;;8.96;69.83;99886.97;5072589;28;20052;-66
2023/04/13 03:01:52;;;;;;;24.35;4.32;;;;;;;8.88;70.10;99890.50;5068137;28;20055;-66
2023/04/13 03:04:22;;;;;;;25.42;3.70;;;;;;;8.84;70.32;99901.34;5055373;28;20049;-66
2023/04/13 03:06:53;;;;;;;18.33;3.72;;;;;;;8.88;70.44;99907.00;5070941;28;20566;-66
2023/04/13 03:09:23;;;;;;;21.23;4.00;;;;;;;8.64;71.61;99909.38;5060656;28;20047;-66
2023/04/13 03:11:55;;;;;;;31.58;5.32;;;;;;;8.70;71.52;99908.13;5070343;28;20048;-66
2023/04/13 03:14:23;;;;;;;26.30;4.28;;;;;;;8.90;71.60;99902.81;5072624;28;20048;-65
2023/04/13 03:16:57;;;;;;;19.25;3.50;;;;;;;8.95;70.55;99891.66;5069780;28;20144;-66
2023/04/13 03:19:32;;;;;;;23.48;3.70;;;;;;;9.12;70.09;99899.06;5073330;28;20048;-66
2023/04/13 03:21:59;;;;;;;22.65;4.30;;;;;;;9.05;71.08;99899.56;5071057;28;20515;-66
2023/04/13 03:24:28;;;;;;;19.30;3.30;;;;;;;8.63;71.75;99905.81;5069625;28;20045;-65
2023/04/13 03:26:59;;;;;;;22.98;3.72;;;;;;;8.66;72.07;99912.63;5070768;28;20048;-65
2023/04/13 03:29:38;;;;;;;29.38;5.13;;;;;;;8.59;72.05;99910.34;5078885;28;20559;-65
2023/04/13 03:32:07;;;;;;;29.38;4.22;;;;;;;8.51;72.94;99911.13;5071808;28;20052;-66
2023/04/13 03:34:42;;;;;;;22.73;4.70;;;;;;;8.71;72.54;99912.47;5081431;28;20060;-66
2023/04/13 03:37:11;;;;;;;22.35;3.70;;;;;;;8.74;72.76;99914.56;5066449;28;20420;-66
2023/04/13 03:39:39;;;;;;;23.10;3.55;;;;;;;8.85;72.17;99913.94;5074331;28;20037;-66
2023/04/13 03:42:10;;;;;;;29.02;4.57;;;;;;;8.67;71.97;99912.28;5074671;28;20048;-66
2023/04/13 03:44:43;;;;;;;24.08;4.30;;;;;;;8.76;72.24;99913.13;5057584;28;20059;-66
2023/04/13 03:47:11;;;;;;;18.50;4.05;;;;;;;8.73;71.85;99908.28;5075014;28;20219;-65
2023/04/13 03:49:39;;;;;;;26.95;4.30;;;;;;;8.74;71.97;99914.56;5041736;28;20048;-66
2023/04/13 03:52:06;;;;;;;19.25;3.97;;;;;;;8.84;71.92;99919.75;5073869;28;20052;-65
2023/04/13 03:54:39;;;;;;;19.15;3.80;;;;;;;8.64;72.26;99923.94;5076380;28;20412;-66
2023/04/13 03:57:06;;;;;;;21.42;4.53;;;;;;;8.60;72.89;99925.69;5055991;28;20148;-64
2023/04/13 03:59:34;;;;;;;25.02;4.20;;;;;;;8.89;71.51;99928.63;5075997;28;20055;-64
2023/04/13 04:02:03;;;;;;;21.90;3.78;;;;;;;9.01;71.54;99934.31;5067608;28;20060;-64
2023/04/13 04:04:34;;;;;;;25.88;4.35;;;;;;;8.81;72.00;99936.88;5072946;28;20126;-64
2023/04/13 04:07:01;;;;;;;24.83;4.25;;;;;;;8.77;72.42;99947.69;5073322;28;20059;-64
2023/04/13 04:09:30;;;;;;;24.88;3.72;;;;;;;8.82;71.58;99944.78;5074516;28;20521;-65
2023/04/13 04:11:58;;;;;;;25.30;4.53;;;;;;;8.57;72.21;99945.53;5053245;28;20061;-64
2023/04/13 04:14:37;;;;;;;22.85;4.03;;;;;;;8.76;72.15;99948.00;5066440;28;20040;-64
2023/04/13 04:17:13;;;;;;;26.45;4.22;;;;;;;8.68;72.63;99946.06;5057216;28;20082;-65
2023/04/13 04:19:40;;;;;;;20.13;3.80;;;;;;;8.74;72.20;99962.06;5076106;28;20051;-64
2023/04/13 04:22:08;;;;;;;20.20;4.00;;;;;;;8.87;71.84;99957.56;5074319;28;20057;-64
2023/04/13 04:24:41;;;;;;;22.52;4.93;;;;;;;8.87;72.20;99958.34;5066288;28;20074;-65
2023/04/13 04:27:08;;;;;;;22.17;4.73;;;;;;;8.89;71.68;99964.34;5077860;28;20060;-64
2023/04/13 04:29:36;;;;;;;22.05;3.65;;;;;;;8.71;71.81;99970.94;5077021;28;20290;-64
2023/04/13 04:32:13;;;;;;;19.05;3.70;;;;;;;8.71;71.99;99973.69;5056255;28;20056;-64
2023/04/13 04:34:41;;;;;;;23.95;3.60;;;;;;;8.84;71.50;99971.91;5077732;28;20052;-64
2023/04/13 04:37:14;;;;;;;29.13;4.80;;;;;;;8.74;71.90;99986.75;5072820;28;20040;-65
2023/04/13 04:39:58;;;;;;;28.63;4.47;;;;;;;8.66;72.24;99981.25;5058420;28;20040;-64
2023/04/13 04:42:26;;;;;;;28.98;4.90;;;;;;;8.87;72.14;99988.56;5053935;28;20052;-64
2023/04/13 04:44:55;;;;;;;29.75;4.18;;;;;;;8.76;71.85;99986.44;5055923;28;20393;-64
2023/04/13 04:47:23;;;;;;;24.67;3.85;;;;;;;8.55;73.02;99993.63;5072430;28;20388;-65
2023/04/13 04:50:13;;;;;;;32.92;4.82;;;;;;;8.53;73.15;99998.63;5065095;28;20044;-65
2023/04/13 04:52:43;;;;;;;25.77;5.15;;;;;;;8.46;73.91;100001.84;5072550;28;20055;-65
2023/04/13 04:55:13;;;;;;;24.60;4.50;;;;;;;8.61;73.33;99995.13;5073103;28;20744;-65
2023/04/13 04:57:42;;;;;;;29.90;4.70;;;;;;;8.66;73.31;99994.97;5073896;28;20044;-66
2023/04/13 05:00:15;;;;;;;21.90;3.65;;;;;;;8.88;72.95;100003.94;5069145;28;20383;-67
2023/04/13 05:03:03;;;;;;;23.42;4.88;;;;;;;8.80;72.64;100003.91;5062079;28;20056;-66
2023/04/13 05:05:31;;;;;;;20.67;3.95;;;;;;;8.68;72.81;100012.72;5061542;28;20392;-65
2023/04/13 05:08:03;;;;;;;23.38;4.35;;;;;;;8.57;73.38;100016.91;5072786;28;20048;-64
2023/04/13 05:10:35;;;;;;;24.45;3.60;;;;;;;8.71;73.07;100017.59;5056041;28;20048;-66
2023/04/13 05:13:02;;;;;;;20.10;4.00;;;;;;;8.73;73.07;100023.59;5075015;28;20045;-64
2023/04/13 05:15:30;;;;;;;24.63;4.20;;;;;;;8.74;73.04;100029.88;5055974;28;20056;-66
2023/04/13 05:17:58;;;;;;;27.13;4.18;;;;;;;8.67;72.86;100033.09;5078517;28;20040;-65
2023/04/13 05:20:28;;;;;;;26.20;4.40;;;;;;;8.66;73.39;100039.72;5080291;28;20057;-66
2023/04/13 05:23:00;;;;;;;25.40;4.95;;;;;;;8.62;73.47;100046.97;5053706;28;20049;-65
2023/04/13 05:25:28;;;;;;;31.02;4.18;;;;;;;8.60;73.55;100049.22;5074158;28;20063;-66
2023/04/13 05:28:00;;;;;;;27.45;4.90;;;;;;;8.49;74.04;100047.06;5074150;28;20404;-66
2023/04/13 05:30:27;;;;;;;27.27;4.95;;;;;;;8.54;73.90;100055.94;5073245;28;20544;-66
2023/04/13 05:32:55;;;;;;;25.40;4.10;;;;;;;8.71;74.20;100063.47;5039528;28;20420;-65
2023/04/13 05:35:26;;;;;;;25.00;3.95;;;;;;;8.82;73.39;100060.09;5056858;28;20515;-64
2023/04/13 05:37:55;;;;;;;19.00;3.83;;;;;;;8.87;73.34;100059.16;5061143;28;20048;-65
2023/04/13 05:40:23;;;;;;;21.48;4.30;;;;;;;8.79;73.20;100060.75;5092113;28;20044;-65
2023/04/13 05:42:51;;;;;;;23.15;4.70;;;;;;;8.49;74.54;100064.31;5075025;28;20045;-65
2023/04/13 05:45:24;;;;;;;21.23;4.40;;;;;;;8.58;74.95;100059.69;5075296;28;20455;-65
2023/04/13 05:48:01;;;;;;;22.70;4.47;;;;;;;8.58;74.92;100061.63;5073167;28;20048;-64
2023/04/13 05:50:28;;;;;;;26.50;4.88;;;;;;;8.56;75.15;100064.69;5071629;28;20496;-64
2023/04/13 05:52:56;;;;;;;29.58;4.35;;;;;;;8.70;74.28;100065.38;5072561;28;20052;-65
2023/04/13 05:55:24;;;;;;;29.00;5.53;;;;;;;8.39;74.75;100061.03;5073214;28;20052;-65
2023/04/13 05:58:00;;;;;;;29.58;4.60;;;;;;;8.56;75.69;100069.38;5073281;28;20119;-65
2023/04/13 06:00:28;;;;;;;28.13;5.53;;;;;;;8.73;74.62;100066.72;5069532;28;20052;-64
2023/04/13 06:03:02;;;;;;;25.80;4.38;;;;;;;8.81;73.63;100065.91;5053949;28;20412;-65
2023/04/13 06:05:31;;;;;;;27.98;5.25;;;;;;;8.92;73.46;100064.50;5071989;28;20061;-65
2023/04/13 06:07:59;;;;;;;24.77;4.10;;;;;;;9.03;73.07;100058.41;5072954;28;20052;-67
2023/04/13 06:10:26;;;;;;;25.15;4.65;;;;;;;9.04;73.30;100072.94;5075175;28;20056;-64
2023/04/13 06:12:54;;;;;;;33.95;5.45;;;;;;;8.93;73.02;100072.44;5085720;28;20044;-63
2023/04/13 06:15:21;;;;;;;23.33;5.07;;;;;;;8.60;74.21;100073.09;5079092;28;20051;-64
2023/04/13 06:17:52;;;;;;;29.40;5.47;;;;;;;8.73;74.72;100075.75;5070147;28;20321;-64
2023/04/13 06:20:20;;;;;;;28.90;5.57;;;;;;;8.96;74.01;100071.00;5037720;28;20059;-64
2023/04/13 06:22:48;;;;;;;24.35;4.97;;;;;;;9.06;73.08;100079.75;5070628;28;20407;-63
2023/04/13 06:25:18;;;;;;;26.60;4.50;;;;;;;8.91;73.02;100082.94;5055621;28;20048;-65
2023/04/13 06:27:48;;;;;;;32.80;5.22;;;;;;;9.10;73.23;100086.22;5066987;28;20420;-64
2023/04/13 06:30:18;;;;;;;24.42;4.97;;;;;;;9.27;72.81;100092.88;5071386;28;20052;-65
2023/04/13 06:32:48;;;;;;;27.05;5.28;;;;;;;9.17;72.53;100090.44;5067850;28;20067;-65
2023/04/13 06:35:19;;;;;;;27.38;4.68;;;;;;;8.84;73.30;100090.00;5068394;28;20049;-64
2023/04/13 06:37:48;;;;;;;28.98;5.45;;;;;;;8.99;73.91;100086.84;5065699;28;20060;-64
2023/04/13 06:40:22;;;;;;;26.10;4.53;;;;;;;9.02;73.77;100087.00;5066388;28;20041;-65
2023/04/13 06:42:59;;;;;;;30.55;5.35;;;;;;;9.12;73.74;100093.34;5063108;28;20475;-65
2023/04/13 06:45:29;;;;;;;28.38;4.97;;;;;;;9.15;72.60;100095.44;5063324;28;20430;-65
2023/04/13 06:47:57;;;;;;;27.60;4.55;;;;;;;9.05;72.95;100091.84;5072678;28;20052;-64
2023/04/13 06:50:25;;;;;;;27.42;4.82;;;;;;;9.09;73.24;100086.53;5071266;28;20044;-64
2023/04/13 06:52:57;;;;;;;29.80;5.13;;;;;;;9.22;73.15;100093.88;5058334;28;20377;-64
2023/04/13 06:55:26;;;;;;;30.83;5.30;;;;;;;9.58;72.22;100082.59;5062484;28;20056;-64
2023/04/13 06:57:54;;;;;;;28.75;4.13;;;;;;;9.42;71.25;100084.19;5069432;28;20066;-63
2023/04/13 07:00:22;;;;;;;26.52;4.85;;;;;;;9.50;71.05;100097.16;5045626;28;20051;-64
2023/04/13 07:02:57;;;;;;;21.55;3.60;;;;;;;9.78;72.47;100091.00;5066406;28;20064;-64
2023/04/13 07:05:25;;;;;;;22.90;4.15;;;;;;;10.83;70.09;100088.56;5040880;28;20056;-65
2023/04/13 07:07:56;;;;;;;24.23;3.83;;;;;;;10.82;70.51;100092.47;5066672;28;20052;-64
2023/04/13 07:10:23;;;;;;;26.75;4.88;;;;;;;10.53;66.50;100089.66;5067471;28;20060;-64
2023/04/13 07:12:52;;;;;;;22.07;4.53;;;;;;;10.35;67.05;100099.91;5073773;28;20056;-66
2023/04/13 07:15:23;;;;;;;24.83;4.15;;;;;;;10.29;66.97;100095.69;5082826;28;20059;-66
2023/04/13 07:17:51;;;;;;;23.15;4.85;;;;;;;10.16;68.15;100096.72;5053967;28;20049;-66
2023/04/13 07:20:18;;;;;;;21.77;4.50;;;;;;;10.17;67.97;100103.81;5056084;28;20044;-66
2023/04/13 07:22:47;;;;;;;23.67;4.78;;;;;;;10.16;68.06;100104.97;5066005;28;20055;-65
2023/04/13 07:25:14;;;;;;;21.10;4.85;;;;;;;9.97;68.16;100108.00;5060241;28;20045;-66
2023/04/13 07:27:42;;;;;;;25.38;5.45;;;;;;;10.17;68.53;100104.63;5068070;28;20369;-65
2023/04/13 07:30:10;;;;;;;34.53;4.93;;;;;;;10.08;67.70;100106.56;5065698;28;20048;-65
2023/04/13 07:32:42;;;;;;;26.90;4.65;;;;;;;10.19;68.01;100107.88;5070737;28;20048;-65
2023/04/13 07:35:10;;;;;;;24.85;5.55;;;;;;;10.00;67.09;100117.56;5072850;28;20058;-64
2023/04/13 07:37:41;;;;;;;22.45;4.22;;;;;;;9.99;68.15;100114.00;5069776;28;20759;-65
2023/04/13 07:40:10;;;;;;;24.00;4.57;;;;;;;9.84;67.67;100120.00;5051267;28;20052;-66
2023/04/13 07:42:40;;;;;;;29.27;4.55;;;;;;;9.88;68.34;100109.97;5065143;28;20051;-67
2023/04/13 07:45:09;;;;;;;18.42;4.45;;;;;;;10.49;70.31;100113.47;5060246;28;20511;-65
2023/04/13 07:47:37;;;;;;;25.80;4.82;;;;;;;10.11;66.33;100127.16;5069302;28;20052;-66
2023/04/13 07:50:08;;;;;;;30.23;5.35;;;;;;;10.28;67.78;100120.81;5052194;28;20060;-65
2023/04/13 07:52:36;;;;;;;31.63;5.03;;;;;;;10.37;66.43;100124.34;5062491;28;20051;-66
2023/04/13 07:55:05;;;;;;;32.13;5.28;;;;;;;10.29;66.76;100122.44;5070380;28;20041;-64
2023/04/13 07:57:37;;;;;;;29.20;4.35;;;;;;;10.66;66.22;100133.53;5070099;28;20060;-65
2023/04/13 08:00:05;;;;;;;23.63;5.30;;;;;;;10.74;65.06;100132.69;5068041;28;20053;-64
2023/04/13 08:02:40;;;;;;;34.00;5.75;;;;;;;10.94;64.87;100140.25;5063788;28;20036;-64
2023/04/13 08:05:12;;;;;;;25.88;4.63;;;;;;;10.98;64.40;100141.19;5063826;28;20067;-65
2023/04/13 08:07:45;;;;;;;27.02;5.60;;;;;;;11.10;63.60;100144.09;5048544;28;20053;-65
2023/04/13 08:10:14;;;;;;;25.10;5.53;;;;;;;10.96;62.66;100146.25;5067158;28;20063;-65
2023/04/13 08:12:42;;;;;;;25.80;4.68;;;;;;;10.97;63.03;100150.59;5050208;28;20049;-65
2023/04/13 08:15:11;;;;;;;27.10;5.15;;;;;;;10.82;63.23;100155.84;5044624;28;20056;-64
2023/04/13 08:17:38;;;;;;;24.55;4.05;;;;;;;10.83;63.23;100161.03;5067929;28;20052;-65
2023/04/13 08:20:07;;;;;;;17.48;4.18;;;;;;;10.92;63.08;100156.31;5083259;28;20071;-65
2023/04/13 08:22:35;;;;;;;29.25;4.78;;;;;;;10.75;63.84;100153.59;5059170;28;20064;-66
2023/04/13 08:25:05;;;;;;;27.50;4.97;;;;;;;10.83;63.38;100152.75;5055889;28;20048;-66
2023/04/13 08:27:33;;;;;;;22.88;4.75;;;;;;;11.01;63.30;100159.03;5063279;28;20074;-66
2023/04/13 08:30:01;;;;;;;24.80;4.68;;;;;;;11.40;62.99;100161.47;5055268;28;20064;-65
2023/04/13 08:32:39;;;;;;;34.13;5.05;;;;;;;11.47;61.52;100159.00;5068113;28;20049;-65
2023/04/13 08:35:08;;;;;;;27.55;5.38;;;;;;;11.34;62.03;100160.84;5077742;28;20079;-65
2023/04/13 08:37:38;;;;;;;23.33;5.20;;;;;;;11.49;61.96;100162.19;5056052;28;20055;-65
2023/04/13 08:40:10;;;;;;;28.88;6.60;;;;;;;11.62;61.22;100161.16;5066654;28;20052;-65
2023/04/13 08:42:39;;;;;;;18.67;4.00;;;;;;;11.63;60.41;100157.25;5047724;28;20056;-63
2023/04/13 08:45:08;;;;;;;22.65;4.15;;;;;;;11.55;59.82;100157.31;5069060;28;20061;-66
2023/04/13 08:47:39;;;;;;;22.67;4.38;;;;;;;11.28;59.97;100169.59;5063792;28;20053;-65
2023/04/13 08:50:07;;;;;;;29.95;4.35;;;;;;;10.90;61.60;100166.03;5060671;28;20060;-64
2023/04/13 08:52:41;;;;;;;25.38;4.57;;;;;;;11.36;61.46;100163.25;5066771;28;20049;-64
2023/04/13 08:55:08;;;;;;;26.88;4.50;;;;;;;11.61;60.05;100170.56;5063120;28;20049;-64
2023/04/13 08:57:37;;;;;;;23.05;4.68;;;;;;;11.60;58.43;100179.19;5056708;28;20079;-64
2023/04/13 09:00:11;;;;;;;21.65;4.63;;;;;;;11.69;58.48;100172.50;5058057;28;20053;-64
2023/04/13 09:02:39;;;;;;;19.35;3.70;;;;;;;11.52;57.27;100171.78;5062423;28;20048;-65
2023/04/13 09:05:22;;;;;;;17.60;3.58;;;;;;;11.90;57.66;100181.63;5066545;28;20063;-65
2023/04/13 09:07:55;;;;;;;26.50;4.38;;;;;;;11.84;56.32;100171.09;5043665;28;20064;-64
2023/04/13 09:10:25;;;;;;;20.75;4.32;;;;;;;11.44;56.77;100176.19;5044551;28;20056;-65
2023/04/13 09:12:52;;;;;;;26.70;4.90;;;;;;;11.20;57.67;100185.06;5058007;28;20055;-65
2023/04/13 09:15:20;;;;;;;21.80;4.32;;;;;;;11.16;58.46;100181.34;5081417;28;20056;-66
2023/04/13 09:18:08;;;;;;;21.17;3.60;;;;;;;11.58;58.30;100182.28;5062294;28;20052;-65
2023/04/13 09:20:39;;;;;;;19.15;3.78;;;;;;;11.83;57.13;100180.53;5067783;28;20094;-67
2023/04/13 09:23:14;;;;;;;22.80;4.63;;;;;;;11.92;56.77;100184.88;5068502;28;20051;-66
2023/04/13 09:25:44;;;;;;;17.75;3.83;;;;;;;11.78;54.75;100186.25;5056692;28;20237;-65
2023/04/13 09:28:16;;;;;;;21.30;3.43;;;;;;;11.89;55.46;100171.72;5062461;28;20123;-66
2023/04/13 09:30:43;;;;;;;18.10;3.33;;;;;;;12.25;54.30;100179.41;5065017;28;20055;-66
2023/04/13 09:33:12;;;;;;;21.83;4.45;;;;;;;12.13;53.69;100179.34;5074271;28;20045;-65
2023/04/13 09:35:40;;;;;;;19.02;4.47;;;;;;;12.09;54.44;100176.47;5052441;28;20052;-65
2023/04/13 09:38:10;;;;;;;23.42;4.15;;;;;;;12.20;52.98;100171.34;5062201;28;20060;-65
2023/04/13 09:40:46;;;;;;;;;;;;;;;11.99;52.60;100173.28;5062290;28;20052;-66
2023/04/13 09:43:14;;;;;;;23.60;3.72;;;;;;;12.25;52.82;100187.69;5068430;28;19936;-64
2023/04/13 09:45:44;;;;;;;18.05;4.10;;;;;;;12.56;51.88;100170.69;5029519;28;20064;-66
2023/04/13 09:48:20;;;;;;;17.20;3.78;;;;;;;12.01;50.65;100176.53;5063869;28;20061;-65
2023/04/13 09:51:00;;;;;;;18.83;4.80;;;;;;;12.07;52.08;100180.69;5047782;28;20047;-67
2023/04/13 09:53:38;;;;;;;18.33;5.40;;;;;;;11.94;50.70;100181.78;5064165;28;20044;-66
2023/04/13 09:56:06;;;;;;;29.02;12.23;;;;;;;12.09;50.09;100175.63;5065365;28;20056;-65
2023/04/13 09:58:53;;;;;;;25.45;9.90;;;;;;;12.30;49.57;100170.94;5052721;28;20052;-67
2023/04/13 10:01:21;;;;;;;21.00;4.78;;;;;;;12.45;48.55;100165.59;5063263;28;20063;-65
2023/04/13 10:03:48;;;;;;;16.15;3.25;;;;;;;12.70;48.08;100158.19;5048810;28;20053;-67
2023/04/13 10:06:16;;;;;;;15.50;4.10;;;;;;;12.78;47.21;100164.78;5054883;28;20063;-66
2023/04/13 10:08:45;;;;;;;16.10;3.50;;;;;;;12.90;47.05;100165.59;5039723;28;20056;-67
2023/04/13 10:11:13;;;;;;;17.10;3.80;;;;;;;12.99;47.09;100157.25;5062146;28;20040;-67
2023/04/13 10:13:47;;;;;;;15.70;3.22;;;;;;;13.18;45.56;100150.00;5053728;28;20051;-66
2023/04/13 10:16:40;;;;;;;12.70;2.35;;;;;;;13.11;43.74;100149.78;5059332;28;20055;-68
2023/04/13 10:19:17;;;;;;;13.30;3.45;;;;;;;13.28;44.17;100148.78;5063824;28;20060;-67
2023/04/13 10:21:46;;;;;;;13.20;2.88;;;;;;;13.40;44.92;100146.81;5076257;28;20045;-67
2023/04/13 10:24:14;;;;;;;11.48;2.60;;;;;;;13.70;45.11;100143.78;5068573;28;20068;-68
2023/04/13 10:26:44;;;;;;;14.65;2.97;;;;;;;13.75;44.37;100152.69;5069143;28;20126;-68
2023/04/13 10:29:13;;;;;;;13.98;2.97;;;;;;;14.22;44.90;100155.69;5066124;28;20053;-65
2023/04/13 10:31:47;;;;;;;10.55;2.88;;;;;;;14.30;44.15;100149.19;5068421;28;20052;-64
2023/04/13 10:34:26;;;;;;;13.25;3.22;;;;;;;14.42;43.52;100144.44;5071729;28;20060;-67
2023/04/13 10:36:56;;;;;;;13.25;3.17;;;;;;;14.25;42.51;100149.44;5060924;28;20052;-66
2023/04/13 10:39:26;;;;;;;12.23;3.72;;;;;;;14.24;42.32;100156.13;5071161;28;20119;-65
2023/04/13 10:42:07;;;;;;;15.05;3.45;;;;;;;14.26;42.03;100153.84;5076538;28;20514;-65
2023/04/13 10:44:47;;;;;;;12.02;4.88;;;;;;;14.21;41.55;100146.56;5064042;28;20059;-64
2023/04/13 10:47:19;;;;;;;9.77;3.33;;;;;;;14.04;41.52;100146.03;5060359;28;20044;-64
2023/04/13 10:49:49;;;;;;;12.85;3.10;;;;;;;14.15;40.97;100156.28;5059429;28;20059;-64
2023/04/13 10:52:16;;;;;;;11.13;3.25;;;;;;;14.19;41.71;100150.84;5062496;28;20056;-64
2023/04/13 10:54:44;;;;;;;18.13;3.10;;;;;;;14.04;41.89;100149.59;5075706;28;20062;-64
2023/04/13 10:57:13;;;;;;;13.13;3.15;;;;;;;14.22;41.58;100152.91;5067758;28;20053;-63
2023/04/13 10:59:44;;;;;;;14.03;3.10;;;;;;;13.78;42.14;100143.66;5070367;28;20864;-63
2023/04/13 11:02:30;;;;;;;14.93;3.20;;;;;;;13.60;42.14;100166.41;5067251;28;20052;-63
2023/04/13 11:04:59;;;;;;;12.75;2.92;;;;;;;13.52;42.78;100160.66;5051696;28;20052;-64
2023/04/13 11:07:27;;;;;;;14.98;2.90;;;;;;;13.60;41.20;100181.03;5063138;28;20049;-63
2023/04/13 11:09:57;;;;;;;12.85;2.97;;;;;;;12.11;46.77;100173.34;5058791;28;20053;-64
2023/04/13 11:12:27;;;;;;;11.82;3.30;;;;;;;11.20;49.83;100165.75;5062938;28;20037;-64
2023/04/13 11:14:55;;;;;;;10.48;2.38;;;;;;;11.45;49.68;100165.97;5068529;28;20064;-65
2023/04/13 11:17:22;;;;;;;14.82;4.15;;;;;;;11.18;50.83;100176.31;5073006;28;20067;-64
2023/04/13 11:19:51;;;;;;;20.92;9.35;;;;;;;10.88;53.29;100171.88;5062849;28;20071;-65
2023/04/13 11:22:24;;;;;;;14.27;3.90;;;;;;;10.96;52.85;100164.72;5071826;28;20055;-63
2023/04/13 11:24:51;;;;;;;12.88;3.53;;;;;;;10.70;52.93;100162.03;5049641;28;20052;-62
2023/04/13 11:27:23;;;;;;;9.23;3.05;;;;;;;11.02;53.39;100157.88;5064443;28;20063;-64
2023/04/13 11:30:07;;;;;;;12.05;3.25;;;;;;;11.26;52.95;100152.59;5066137;28;20503;-64
2023/04/13 11:32:40;;;;;;;13.55;4.82;;;;;;;11.37;52.42;100147.53;5062294;28;20048;-63
2023/04/13 11:35:09;;;;;;;13.13;3.30;;;;;;;11.23;52.17;100145.78;5060194;28;20053;-64
2023/04/13 11:37:47;;;;;;;17.02;3.28;;;;;;;11.30;52.33;100139.75;5069352;28;20059;-63
2023/04/13 11:40:20;;;;;;;13.98;3.17;;;;;;;11.47;52.42;100136.13;5070076;28;20048;-63
2023/04/13 11:42:50;;;;;;;16.25;3.75;;;;;;;11.80;51.59;100145.34;5060150;28;20048;-64